NWS Home NWS Lubbock West Texas Mesonet Day over Day changes as of 0537 PM, Tue Jan 16, 2018

Latest   N   C   S   Daily Sum   3hrΔ   24hrΔ   Soil Data 
Site Map   24hr Precip   72hr Precip   Google Plot


Station Time of Last Temp Today Temp Yesterday Delta-T Dewpoint Today Dewpoint Yesterday Delta-Td Delta-Pressure (mB)
Reese Center  05:30 PM 30.6 28.6 2.1 0.9 7.2 -6.3 3.1
Abernathy  05:30 PM 29.2 27.5 1.7 2.2 5.9 -3.7 2.7
Plainview  05:30 PM 28.7 26.2 2.4 0.7 0.4 0.3 2.2
Tahoka  05:30 PM 30.2 31.2 -1 -2.7 20.2 -23 4.3
Slaton  05:30 PM 29.8 30 -0.1 -2.2 18.5 -20.7 3.7
Levelland  05:30 PM 29.7 28.5 1.2 -1.1 9.4 -10.5 3.5
Roaring Springs  05:30 PM 26.3 28.9 -2.6 -6.1 14 -20.1 3.5
Floydada  05:30 PM 27.3 27.3 -0 -2.5 5.2 -7.6 2.8
Ralls  05:30 PM 28.8 29.3 -0.5 -3.1 14.3 -17.4 3.4
Brownfield  05:30 PM 29.5 31.6 -2.2 -1.6 18.5 -20 4.5
Muleshoe  05:30 PM 32.5 27.3 5.3 5.8 11.6 -5.9 1.9
Morton  05:30 PM 29.4 29 0.4 0.4 7.9 -7.5 3
O'Donnell  05:30 PM 30.6 31.9 -1.3 -4.6 22.2 -26.8 5.1
Seagraves  05:30 PM 29.9 30.7 -0.8 1.5 24.1 -22.5 4.7
Amherst  05:30 PM 31.5 26.5 5 4 6.7 -2.7 2.2
Plains  05:30 PM 30.9 28.2 2.7 0.7 23.8 -23.1 3.7
Lamesa  05:30 PM 30 33.7 -3.7 -2.8 24.1 -26.8 6.2
Hart  05:30 PM 28.5 24.2 4.3 4.8 6.7 -1.8 1.7
Friona  05:30 PM 29.5 24.4 5.1 6.5 12.4 -5.9 1
Dimmitt  05:30 PM 28.8 24 4.8 5.3 8.2 -2.9 1.4
Tulia  05:30 PM 27.6 24.3 3.3 3.2 6.4 -3.2 1.7
Silverton  05:30 PM 25.6 24.2 1.3 -7 -5.2 -1.8 2.1
Post  05:30 PM 31.9 33.1 -1.2 -4.3 19.6 -24 4.6
Seminole  05:30 PM 29.9 31.3 -1.3 -1.2 25.3 -26.4 5.1
Gail  05:30 PM 31.3 35.4 -4.1 -3.9 21.4 -25.3 6.2
White River Lake  05:30 PM 30.3 31.5 -1.2 -3.4 14.3 -17.7 3.9
Graham  05:30 PM 30 31.7 -1.6 -2.5 21.5 -24.1 5.3
Sundown  05:30 PM 29.3 27.6 1.7 2.3 15.7 -13.4 3.7
Anton  05:30 PM 30.4 28.8 1.6 3.4 9.2 -5.8 2.9
Fluvanna  05:30 PM 29.2 33 -3.9 -6.2 19.7 -25.8 6.5
Spur  05:30 PM 28 33 -5 -7.8 14.1 -21.9 4.7
Northwest Lubbock  05:30 PM 30.7 30.2 0.5 0.8 8.8 -8 3.2
Guthrie  05:30 PM 27 33 -6 -11 11.8 -22.9 5
Clarendon  05:30 PM 26.4 23.8 2.6 -6.9 0.6 -7.6 2.3
Paducah  05:30 PM 25.6 31 -5.4 -9.8 10.7 -20.5 4.1
Snyder  05:30 PM 28.7 35 -6.3 -5.5 22.3 -27.9 7.2
Memphis  05:30 PM 28.1 25.6 2.5 -16.4 -4.7 -11.7 2.1
Jayton  05:30 PM 27.8 34.6 -6.9 -8.8 15.9 -24.7 6
Pampa  05:30 PM 21.4 20.9 0.5 -7.7 8 -15.7 1.5
Aspermont  05:30 PM 27.3 35.3 -8 -9.8 19 -28.8 6.7
Hereford  05:30 PM 30.5 24.1 6.4 4.6 9 -4.4 1
Goodlett  05:30 PM 26.6 30 -3.4 -16.7 4.9 -21.6 3.7
McLean  05:30 PM 23.5 22.1 1.4 -17.2 0.3 -17.4 2.1
Denver City  05:30 PM 31 28 3 0.2 23.9 -23.6 4
Lake Alan Henry  05:30 PM 30.7 34.8 -4.1 -10 16.4 -26.5 5.7
Wolfforth  05:30 PM 30.9 30.5 0.4 -0.3 12.6 -12.9 3.5
Andrews  05:30 PM 30.7 35.8 -5.1 -3.3 24.7 -28 6.5
Turkey  05:30 PM 27.8 26.9 0.9 -6.8 -2.2 -4.7 2.4
Childress  05:30 PM 26.1 28.2 -2.2 -17.7 2.5 -20.2 3.2
Tatum  05:30 PM 32.3 28.2 4 1.3 21.7 -20.4 3.4
Northfield  05:30 PM 28.1 29.5 -1.4 -11.2 2.1 -13.4 2.9
Dora  05:30 PM 33 27.5 5.5 4 11.6 -7.6 2.2
Northwest San Angelo  05:30 PM 26.2 48.5 -22.2 -8.2 25.5 -33.7 12.9
Saint Lawrence  05:30 PM 26.3 45 -18.7 -5.9 25.5 -31.4 10.7
Haskell  05:30 PM 26.3 35 -8.7 -10 16.3 -26.3 7.2
Wall  05:30 PM 26.1 50.7 -24.6 -4.1 29.6 -33.7 13.1
Seymour  05:25 PM 27.2 34.5 -7.3 -6.7 7.1 -13.8 6
Knox City  05:30 PM 28 35.3 -7.4 -10.9 13.2 -24.1 5.9
Guadalupe Mtns Park  05:30 PM 21.2 38.8 -17.6 -0.5 22.1 -22.6 4.4
Caprock Canyons   05:30 PM 27.8 26.2 1.6 -5.4 -2.8 -2.6 2.4
Odell  05:30 PM 24.7 29.4 -4.7 -6.8 1.7 -8.5 3.9
Coyanosa  05:30 PM 29.2 56.3 -27.1 -3.3 22.2 -25.5 11.9
Big Lake  05:30 PM 23.3 51.4 -28 -4.2 26.3 -30.5 12.3
Junction  05:30 PM 25.6 63.4 -37.7 -3.8 45.5 -49.3 14.5
Hobbs  05:30 PM 30.8 32 -1.2 0.3 25.9 -25.6 4.7
Canadian  05:30 PM 21 22.2 -1.2 -12.2 -0.5 -11.7 1.2
Palo Duro Canyon State Park Rim  05:30 PM 27.8 23.7 4.1 0.1 8.1 -8 1.1
Bootleg  05:30 PM 30.3 22.6 7.6 6 11.3 -5.3 0.4
Sterling City  05:30 PM 25.2 42.2 -17 -7.8 26.1 -33.9 9.7
Mertzon  05:30 PM 24.8 50.6 -25.8 -5.2 28.3 -33.5 12.8
Persimmon Gap  05:30 PM 30.4 68.2 -37.9 -9.2 25.3 -34.5 14.1
Weinert  05:30 PM 26.3 34.8 -8.6 -8.7 13.8 -22.5 6.2
Claude 12 Southwest  05:30 PM 25.1 22.3 2.8 -2.1 7.3 -9.4 1.6
Amarillo 7 South Southeast  05:30 PM 25.9 23.2 2.7 -0.8 7.7 -8.5 1.1
Umbarger  05:30 PM 30.8 23.3 7.5 6 10.4 -4.3 0.9
Lomax  05:30 PM 29.8 40.3 -10.5 -3 24.9 -27.9 8
Amarillo 9 North Northeast  05:30 PM 25.4 23.8 1.6 -0.4 4.8 -5.2 0.9
Aiken 3 West Southwest  05:30 PM 27.7 25.8 1.9 -0.3 1.2 -1.5 2.3
Sweetwater  05:30 PM 25.4 36.2 -10.8 -5.7 25.7 -31.4 8.3
Dozier  05:30 PM 25.5 24.4 1.1 -16.6 -1.6 -15 2.1
Amarillo 15 North Northwest  05:30 PM 28.8 23.9 4.8 2.4 2.4 0.1 0.5
Menard  05:30 PM 24.2 64.2 -40 -3.6 43.8 -47.4 14.1
Tarzan  05:30 PM 30 37.6 -7.6 -1.1 24 -25.1 7
Goodnight  05:30 PM 25 22.9 2.1 -2.7 6.9 -9.6 1.8
Boys Ranch   05:30 PM 28.9 25.2 3.8 4.4 1.5 3 0.1
Fort McKavett  05:30 PM 23.7 62.9 -39.2 -3.9 44.3 -48.2 13.5
Fort Chadbourne  05:30 PM 27.4 40.7 -13.3 -4.7 28 -32.7 10.5
Palo Duro Canyon State Park Floor  05:30 PM 29.4 26.6 2.7 0.7 8.9 -8.1 1
Fort Lancaster  05:30 PM 28.3 62.5 -34.2 -4.7 40.5 -45.2 15
Dell City 1N  05:30 PM 31.1 43.9 -12.9 3.3 24.9 -21.5 6.8
Clyde  05:30 PM 22.7 37 -14.4 -5.4 28.3 -33.7 8.6
Snyder SSW  05:30 PM 28.7 35.4 -6.6 -4.8 21.8 -26.5 7.2
Panhandle  05:30 PM 23.4 21.8 1.6 -2.2 9.5 -11.8 1.4
Vigo Park  05:30 PM 26.3 23.8 2.5 -1.2 2.6 -3.8 1.6
Welch  05:30 PM 29.9 31.9 -2 -1.8 23 -24.8 5.1
Throckmorton  05:30 PM 25.8 36.3 -10.5 -4.8 21.7 -26.4 7.6
Sierra Blanca  05:30 PM 28.5 56.5 -28 2.7 21.2 -18.5 7.5
Fort Lewis CO  05:30 PM 36.6 41.5 -4.9 20.8 24.4 -3.5 3.5
New Home  05:30 PM 30.3 30.8 -0.6 0.9 18.5 -17.6 3.9
McCamey  05:30 PM 26.7 56.2 -29.4 -2.8 26.3 -29.1 13.6
Stamford  04:30 PM 48.6 74.2 -25.6 14.2 40.7 -26.4 18.6
Crowell  05:30 PM 27.2 31.4 -4.2 -12.3 2.9 -15.2 4.3
Stinnett  05:30 PM 23.1 20.9 2.2 -1.9 -2.6 0.7 0.5
Colorado City  05:30 PM 29.9 38 -8.2 -6.1 24.8 -30.8 7.7
Happy  05:30 PM 27.2 23.7 3.5 1.8 7.3 -5.5 1.3
Endee  05:30 PM 35.2 25 10.3 11.2 11.8 -0.6 -0.2
JA Ranch  05:30 PM 27.7 25.8 1.8 -4.6 1.9 -6.6 1.6
Adrian  05:30 PM 30.6 21.5 9.1 8.5 4.6 3.9 0.2
Lesley  05:30 PM 29.7 27.2 2.5 -7.9 -4.7 -3.2 1.8
Earth  05:30 PM 28.1 26.3 1.8 4.5 7.5 -3 2
Olton  05:30 PM 29 26.3 2.7 2.5 0.8 1.7 2.3

West Texas Mesonet Home   Site Map/Menu  NWS Lubbock Soil Data  Daily Summary Page  24hr Precip  72hr Precip  Google Plot